createdAt,value
2018-12-11T00:01:41.366Z,72.62
2018-12-11T00:04:16.704Z,72.44
2018-12-11T00:06:49.805Z,72.04
2018-12-11T00:09:23.187Z,72.56
2018-12-11T00:11:56.179Z,72.62
2018-12-11T00:14:29.465Z,72.47
2018-12-11T00:17:02.355Z,72.18
2018-12-11T00:19:35.521Z,72.54
2018-12-11T00:22:08.449Z,71.72
2018-12-11T00:24:41.576Z,72.61
2018-12-11T00:27:14.688Z,72.34
2018-12-11T00:29:47.772Z,72.22
2018-12-11T00:32:21.484Z,71.91
2018-12-11T00:34:54.924Z,71.64
2018-12-11T00:37:28.226Z,71.71
2018-12-11T00:40:01.310Z,71.83
2018-12-11T00:42:34.594Z,71.79
2018-12-11T00:45:07.855Z,71.88
2018-12-11T00:47:41.002Z,72.56
2018-12-11T00:50:14.156Z,72.22
2018-12-11T00:52:47.199Z,72.05
2018-12-11T00:55:20.266Z,72.18
2018-12-11T00:57:53.193Z,72.61
2018-12-11T01:00:26.258Z,71.40
2018-12-11T01:02:59.933Z,71.86
2018-12-11T01:05:32.968Z,72.40
2018-12-11T01:08:06.218Z,72.51
2018-12-11T01:10:39.114Z,72.54
2018-12-11T01:13:12.207Z,72.78
2018-12-11T01:15:45.494Z,72.93
2018-12-11T01:18:18.681Z,73.03
2018-12-11T01:20:51.706Z,73.10
2018-12-11T01:23:24.998Z,73.19
2018-12-11T01:25:58.227Z,73.63
2018-12-11T01:28:31.290Z,73.17
2018-12-11T01:31:04.350Z,73.54
2018-12-11T01:33:38.181Z,73.41
2018-12-11T01:36:11.310Z,72.66
2018-12-11T01:38:45.739Z,73.05
2018-12-11T01:41:19.085Z,73.30
2018-12-11T01:43:52.584Z,72.54
2018-12-11T01:46:25.916Z,73.38
2018-12-11T01:48:59.404Z,73.18
2018-12-11T01:51:32.420Z,73.25
2018-12-11T01:54:05.818Z,73.10
2018-12-11T01:56:38.810Z,73.01
2018-12-11T01:59:12.146Z,73.23
2018-12-11T02:01:45.374Z,73.28
2018-12-11T02:04:19.402Z,72.86
2018-12-11T02:06:52.488Z,73.21
2018-12-11T02:09:26.315Z,72.87
2018-12-11T02:11:59.457Z,72.99
2018-12-11T02:14:32.507Z,73.60
2018-12-11T02:17:05.370Z,74.20
2018-12-11T02:19:38.503Z,74.77
2018-12-11T02:22:11.539Z,74.04
2018-12-11T02:24:44.663Z,73.25
2018-12-11T02:27:17.672Z,73.56
2018-12-11T02:29:50.893Z,73.04
2018-12-11T02:32:24.107Z,73.58
2018-12-11T02:34:57.877Z,74.01
2018-12-11T02:37:30.864Z,73.66
2018-12-11T02:40:04.150Z,74.21
2018-12-11T02:42:37.017Z,73.96
2018-12-11T02:45:10.786Z,73.90
2018-12-11T02:47:43.935Z,73.94
2018-12-11T02:50:17.231Z,73.28
2018-12-11T02:52:50.287Z,73.76
2018-12-11T02:55:23.515Z,73.11
2018-12-11T02:57:56.651Z,73.73
2018-12-11T03:00:29.797Z,73.57
2018-12-11T03:03:02.835Z,73.97
2018-12-11T03:05:36.437Z,74.34
2018-12-11T03:08:09.936Z,73.83
2018-12-11T03:10:43.833Z,73.19
2018-12-11T03:13:17.745Z,72.83
2018-12-11T03:15:51.076Z,73.45
2018-12-11T03:18:23.963Z,73.10
2018-12-11T03:20:57.020Z,72.83
2018-12-11T03:23:30.321Z,73.20
2018-12-11T03:26:04.129Z,72.83
2018-12-11T03:28:37.077Z,72.66
2018-12-11T03:31:10.270Z,73.12
2018-12-11T03:33:43.350Z,72.48
2018-12-11T03:36:17.153Z,71.51
2018-12-11T03:38:50.077Z,71.95
2018-12-11T03:41:23.550Z,71.14
2018-12-11T03:43:56.604Z,71.06
2018-12-11T03:46:30.496Z,70.47
2018-12-11T03:49:03.888Z,70.54
2018-12-11T03:51:36.928Z,69.71
2018-12-11T03:54:09.966Z,69.36
2018-12-11T03:56:43.198Z,69.60
2018-12-11T03:59:16.330Z,69.13
2018-12-11T04:01:49.767Z,70.07
2018-12-11T04:04:23.030Z,69.62
2018-12-11T04:06:57.034Z,69.70
2018-12-11T04:09:30.105Z,69.28
2018-12-11T04:12:03.428Z,68.93
2018-12-11T04:14:36.791Z,68.63
2018-12-11T04:17:10.800Z,68.57
2018-12-11T04:19:44.114Z,68.03
2018-12-11T04:22:17.026Z,67.83
2018-12-11T04:24:50.291Z,68.37
2018-12-11T04:27:23.581Z,67.92
2018-12-11T04:29:56.680Z,67.59
2018-12-11T04:32:29.678Z,67.25
2018-12-11T04:35:03.481Z,66.05
2018-12-11T04:37:37.295Z,66.44
2018-12-11T04:40:11.158Z,65.65
2018-12-11T04:42:45.557Z,65.60
2018-12-11T04:45:18.865Z,66.68
2018-12-11T04:47:52.303Z,67.23
2018-12-11T04:50:25.709Z,67.35
2018-12-11T04:52:59.386Z,66.57
2018-12-11T04:55:32.870Z,67.12
2018-12-11T04:58:06.115Z,66.45
2018-12-11T05:00:39.468Z,65.87
2018-12-11T05:03:13.423Z,65.94
2018-12-11T05:05:46.435Z,65.32
2018-12-11T05:08:19.926Z,64.97
2018-12-11T05:10:53.231Z,65.06
2018-12-11T05:13:26.621Z,64.20
2018-12-11T05:16:00.202Z,63.65
2018-12-11T05:18:33.485Z,63.46
2018-12-11T05:21:07.420Z,62.94
2018-12-11T05:23:40.752Z,64.73
2018-12-11T05:26:14.349Z,65.05
2018-12-11T05:28:47.615Z,64.44
2018-12-11T05:31:23.334Z,64.28
2018-12-11T05:33:57.853Z,64.41
2018-12-11T05:36:31.629Z,64.16
2018-12-11T05:39:06.980Z,64.18
2018-12-11T05:41:40.667Z,62.30
2018-12-11T05:53:14.660Z,63.11
2018-12-11T05:55:48.414Z,63.74
2018-12-11T05:58:21.968Z,63.47
2018-12-11T06:00:55.783Z,63.30
2018-12-11T06:03:32.191Z,62.66
2018-12-11T06:06:05.719Z,60.90
2018-12-11T06:08:40.335Z,60.15
2018-12-11T06:11:23.074Z,59.96
2018-12-11T06:13:56.315Z,61.70
2018-12-11T06:16:30.069Z,61.09
2018-12-11T06:19:04.270Z,60.14
2018-12-11T06:21:38.017Z,60.14
2018-12-11T06:24:11.312Z,60.54
2018-12-11T06:26:46.512Z,60.49
2018-12-11T06:29:20.064Z,58.02
2018-12-11T06:31:53.452Z,57.57
2018-12-11T06:34:26.877Z,59.46
2018-12-11T06:37:00.420Z,58.15
2018-12-11T06:39:33.818Z,60.36
2018-12-11T06:48:06.886Z,57.18
2018-12-11T06:50:40.907Z,57.53
2018-12-11T06:53:14.323Z,56.71
2018-12-11T06:55:48.772Z,56.73
2018-12-11T06:58:22.551Z,55.57
2018-12-11T07:00:56.623Z,56.48
2018-12-11T07:03:30.214Z,57.08
2018-12-11T07:06:03.629Z,57.29
2018-12-11T07:08:37.004Z,55.86
2018-12-11T07:11:10.292Z,55.48
2018-12-11T07:13:43.981Z,55.82
2018-12-11T07:16:18.357Z,55.99
2018-12-11T07:18:52.046Z,57.61
2018-12-11T07:21:26.056Z,57.52
2018-12-11T07:23:59.328Z,55.44
2018-12-11T07:26:32.771Z,53.72
2018-12-11T07:29:05.924Z,55.38
2018-12-11T07:31:38.990Z,56.77
2018-12-11T07:34:12.222Z,56.38
2018-12-11T07:36:45.644Z,56.61
2018-12-11T07:39:18.615Z,56.26
2018-12-11T07:41:52.299Z,52.99
2018-12-11T07:44:25.617Z,51.73
2018-12-11T07:46:59.295Z,52.62
2018-12-11T07:49:32.707Z,52.28
2018-12-11T07:52:06.746Z,52.00
2018-12-11T07:54:41.303Z,52.16
2018-12-11T07:57:15.751Z,53.47
2018-12-11T07:59:49.956Z,55.61
2018-12-11T08:02:23.793Z,54.95
2018-12-11T08:04:57.308Z,53.91
2018-12-11T08:07:31.168Z,54.70
2018-12-11T08:10:05.223Z,53.32
2018-12-11T08:12:39.215Z,53.82
2018-12-11T08:15:12.853Z,54.25
2018-12-11T08:17:46.303Z,54.39
2018-12-11T08:20:19.395Z,54.72
2018-12-11T08:22:53.057Z,54.34
2018-12-11T08:25:25.527Z,54.15
2018-12-11T08:27:58.343Z,52.97
2018-12-11T08:30:30.226Z,53.54
2018-12-11T08:33:02.133Z,54.45
2018-12-11T08:35:34.003Z,54.27
2018-12-11T08:38:05.872Z,53.82
2018-12-11T08:40:37.778Z,53.73
2018-12-11T08:43:09.327Z,53.57
2018-12-11T08:45:41.119Z,54.92
2018-12-11T08:48:12.590Z,55.50
2018-12-11T08:50:44.292Z,54.36
2018-12-11T08:53:16.304Z,54.03
2018-12-11T08:55:48.072Z,53.60
2018-12-11T08:58:20.885Z,54.75
2018-12-11T09:00:52.640Z,54.27
2018-12-11T09:03:24.165Z,55.54
2018-12-11T09:05:56.304Z,54.27
2018-12-11T09:08:27.883Z,52.89
2018-12-11T09:10:59.635Z,52.77
2018-12-11T09:13:31.171Z,54.27
2018-12-11T09:16:03.478Z,54.74
2018-12-11T09:18:35.101Z,53.50
2018-12-11T09:21:06.924Z,53.61
2018-12-11T09:23:39.062Z,52.84
2018-12-11T09:26:10.880Z,53.08
2018-12-11T09:28:43.053Z,53.68
2018-12-11T09:31:15.189Z,53.56
2018-12-11T09:33:46.611Z,53.14
2018-12-11T09:36:18.331Z,51.78
2018-12-11T09:38:49.838Z,52.75
2018-12-11T09:41:21.431Z,52.23
2018-12-11T09:43:53.005Z,52.30
2018-12-11T09:46:24.463Z,52.19
2018-12-11T09:48:56.179Z,51.52
2018-12-11T09:51:29.260Z,51.22
2018-12-11T09:54:04.119Z,50.17
2018-12-11T09:56:38.278Z,51.04
2018-12-11T09:59:10.330Z,52.75
2018-12-11T10:01:41.937Z,52.40
2018-12-11T10:04:13.586Z,51.64
2018-12-11T10:06:50.705Z,51.56
2018-12-11T10:09:31.420Z,51.49
2018-12-11T10:12:03.925Z,51.50
2018-12-11T10:14:35.437Z,52.06
2018-12-11T10:20:10.413Z,52.38
2018-12-11T10:22:45.692Z,51.75
2018-12-11T10:25:24.992Z,51.52
2018-12-11T10:28:00.427Z,52.82
2018-12-11T10:30:40.633Z,52.78
2018-12-11T10:33:16.011Z,52.99
2018-12-11T10:35:47.766Z,53.01
2018-12-11T10:38:23.880Z,53.11
2018-12-11T10:40:59.432Z,53.05
2018-12-11T10:43:36.291Z,53.77
2018-12-11T10:46:11.929Z,53.49
2018-12-11T10:48:46.977Z,53.88
2018-12-11T10:51:20.344Z,54.57
2018-12-11T10:53:56.811Z,55.54
2018-12-11T10:56:32.246Z,55.04
2018-12-11T10:59:10.234Z,55.46
2018-12-11T11:01:50.769Z,55.46
2018-12-11T11:04:25.619Z,56.13
2018-12-11T11:07:01.130Z,56.23
2018-12-11T11:09:35.909Z,56.21
2018-12-11T11:12:11.209Z,56.61
2018-12-11T11:14:46.365Z,57.16
2018-12-11T11:17:24.996Z,57.56
2018-12-11T11:20:00.400Z,58.25
2018-12-11T11:25:33.479Z,61.32
2018-12-11T11:28:10.235Z,61.32
2018-12-11T11:30:56.884Z,62.05
2018-12-11T11:33:37.059Z,62.00
2018-12-11T11:36:23.432Z,62.66
2018-12-11T11:38:55.962Z,61.87
2018-12-11T11:41:27.497Z,61.68
2018-12-11T11:44:10.158Z,61.90
2018-12-11T11:46:44.022Z,62.29
2018-12-11T11:49:19.544Z,62.87
2018-12-11T11:51:51.043Z,62.33
2018-12-11T11:54:23.646Z,62.85
2018-12-11T11:56:55.261Z,62.68
2018-12-11T11:59:27.149Z,62.88
2018-12-11T12:01:59.402Z,62.44
2018-12-11T12:04:32.053Z,62.67
2018-12-11T12:07:04.349Z,63.38
2018-12-11T12:09:37.467Z,62.82
2018-12-11T12:12:10.418Z,63.34
2018-12-11T12:14:41.989Z,63.63
2018-12-11T12:17:13.619Z,64.38
2018-12-11T12:19:45.139Z,64.00
2018-12-11T12:25:14.560Z,65.17
2018-12-11T12:27:46.112Z,64.57
2018-12-11T12:30:26.496Z,65.17
2018-12-11T12:32:58.111Z,65.68
2018-12-11T12:35:29.864Z,65.69
2018-12-11T12:38:01.385Z,65.40
2018-12-11T12:40:33.204Z,65.83
2018-12-11T12:43:04.801Z,65.27
2018-12-11T12:45:40.003Z,65.00
2018-12-11T12:48:11.518Z,65.69
2018-12-11T12:50:43.275Z,65.69
2018-12-11T12:53:14.857Z,65.46
2018-12-11T12:55:46.317Z,65.79
2018-12-11T12:58:17.943Z,65.88
2018-12-11T13:00:50.166Z,66.01
2018-12-11T13:03:21.900Z,66.08
2018-12-11T13:05:55.259Z,65.88
2018-12-11T13:08:28.154Z,65.98
2018-12-11T13:10:59.665Z,66.53
2018-12-11T13:13:31.533Z,66.69
2018-12-11T13:16:05.135Z,66.52
2018-12-11T13:18:40.320Z,66.55
2018-12-11T13:21:11.668Z,66.80
2018-12-11T13:23:43.540Z,66.68
2018-12-11T13:26:15.278Z,66.33
2018-12-11T13:28:46.738Z,66.19
2018-12-11T13:31:22.473Z,66.41
2018-12-11T13:33:57.271Z,67.07
2018-12-11T13:36:33.359Z,66.82
2018-12-11T13:39:09.264Z,67.50
2018-12-11T13:41:41.848Z,67.53
2018-12-11T13:44:13.756Z,68.23
2018-12-11T13:46:45.104Z,68.03
2018-12-11T13:49:17.571Z,68.19
2018-12-11T13:51:48.992Z,68.37
2018-12-11T13:54:20.563Z,67.92
2018-12-11T13:56:51.901Z,67.94
2018-12-11T13:59:24.380Z,67.63
2018-12-11T14:01:56.390Z,67.36
2018-12-11T14:04:30.077Z,66.86
2018-12-11T14:07:02.448Z,67.55
2018-12-11T14:09:42.418Z,67.97
2018-12-11T14:12:14.337Z,68.73
2018-12-11T14:15:01.600Z,68.61
2018-12-11T14:17:38.863Z,69.06
2018-12-11T14:23:18.455Z,69.32
2018-12-11T14:25:51.468Z,69.37
2018-12-11T14:28:23.288Z,69.25
2018-12-11T14:30:54.948Z,69.38
2018-12-11T14:33:26.974Z,69.14
2018-12-11T14:36:05.348Z,69.33
2018-12-11T14:38:40.712Z,69.39
2018-12-11T14:41:16.104Z,69.05
2018-12-11T14:43:52.392Z,69.79
2018-12-11T14:46:27.308Z,69.22
2018-12-11T14:48:58.891Z,69.70
2018-12-11T14:51:36.233Z,69.45
2018-12-11T14:54:14.013Z,69.77
2018-12-11T14:56:45.522Z,69.55
2018-12-11T14:59:29.118Z,69.83
2018-12-11T15:02:06.600Z,70.24
2018-12-11T15:04:46.011Z,69.69
2018-12-11T15:07:23.778Z,69.77
2018-12-11T15:09:58.678Z,69.72
2018-12-11T15:12:33.296Z,69.17
2018-12-11T15:15:05.133Z,69.67
2018-12-11T15:17:38.955Z,69.34
2018-12-11T15:20:16.370Z,69.07
2018-12-11T15:22:48.070Z,69.13
2018-12-11T15:25:28.400Z,69.38
2018-12-11T15:28:03.746Z,69.26
2018-12-11T15:30:35.373Z,68.80
2018-12-11T15:33:06.908Z,69.45
2018-12-11T15:35:44.089Z,68.79
2018-12-11T15:38:15.681Z,68.75
2018-12-11T15:40:47.304Z,68.53
2018-12-11T15:43:36.045Z,68.40
2018-12-11T15:46:07.833Z,69.00
2018-12-11T15:48:40.339Z,69.33
2018-12-11T15:51:12.361Z,68.63
2018-12-11T15:53:44.265Z,69.49
2018-12-11T15:56:16.450Z,69.29
2018-12-11T15:58:48.766Z,69.44
2018-12-11T16:01:20.665Z,69.35
2018-12-11T16:03:52.968Z,69.06
2018-12-11T16:06:26.129Z,69.54
2018-12-11T16:09:01.039Z,69.96
2018-12-11T16:11:35.401Z,69.40
2018-12-11T16:14:07.292Z,69.02
2018-12-11T16:16:39.389Z,69.59
2018-12-11T16:19:11.203Z,69.34
2018-12-11T16:21:43.419Z,69.66
2018-12-11T16:24:15.234Z,69.23
2018-12-11T16:26:47.121Z,69.22
2018-12-11T16:29:18.682Z,69.28
2018-12-11T16:31:50.671Z,69.45
2018-12-11T16:34:22.615Z,69.64
2018-12-11T16:36:54.869Z,69.85
2018-12-11T16:39:27.202Z,70.11
2018-12-11T16:42:00.059Z,69.58
2018-12-11T16:44:32.153Z,69.30
2018-12-11T16:47:04.140Z,70.14
2018-12-11T16:49:35.763Z,69.34
2018-12-11T16:52:15.299Z,69.27
2018-12-11T16:54:47.035Z,69.86
2018-12-11T16:57:19.783Z,69.65
2018-12-11T16:59:51.938Z,69.98
2018-12-11T17:02:23.782Z,69.39
2018-12-11T17:04:55.816Z,69.93
2018-12-11T17:07:28.332Z,70.21
2018-12-11T17:10:00.326Z,70.40
2018-12-11T17:12:33.235Z,69.96
2018-12-11T17:15:05.841Z,70.30
2018-12-11T17:17:37.994Z,70.18
2018-12-11T17:20:10.091Z,70.12
2018-12-11T17:22:41.920Z,69.89
2018-12-11T17:25:14.450Z,69.97
2018-12-11T17:27:46.436Z,70.17
2018-12-11T17:30:18.417Z,70.90
2018-12-11T17:32:50.535Z,70.53
2018-12-11T17:35:22.207Z,70.48
2018-12-11T17:37:54.491Z,70.93
2018-12-11T17:40:26.594Z,70.33
2018-12-11T17:42:58.224Z,70.38
2018-12-11T17:45:30.087Z,69.43
2018-12-11T17:48:02.557Z,69.34
2018-12-11T17:50:34.327Z,69.32
2018-12-11T17:53:06.423Z,69.01
2018-12-11T17:55:38.097Z,67.83
2018-12-11T17:58:10.010Z,68.54
2018-12-11T18:00:41.697Z,68.10
2018-12-11T18:03:14.475Z,68.56
2018-12-11T18:05:46.675Z,68.45
2018-12-11T18:08:20.047Z,67.94
2018-12-11T18:10:52.537Z,68.10
2018-12-11T18:13:24.534Z,67.72
2018-12-11T18:15:56.263Z,68.49
2018-12-11T18:18:28.212Z,67.86
2018-12-11T18:21:00.427Z,68.51
2018-12-11T18:23:32.315Z,67.31
2018-12-11T18:26:04.230Z,67.91
2018-12-11T18:28:36.164Z,67.34
2018-12-11T18:31:08.547Z,67.53
2018-12-11T18:33:40.273Z,68.04
2018-12-11T18:36:11.902Z,67.98
2018-12-11T18:38:45.587Z,67.95
2018-12-11T18:41:17.400Z,67.83
2018-12-11T18:43:49.300Z,67.71
2018-12-11T18:46:21.130Z,67.39
2018-12-11T18:48:53.293Z,67.73
2018-12-11T18:51:25.112Z,67.35
2018-12-11T18:53:56.860Z,67.28
2018-12-11T18:56:28.507Z,67.33
2018-12-11T18:59:00.433Z,67.98
2018-12-11T19:01:32.151Z,68.38
2018-12-11T19:04:04.075Z,67.25
2018-12-11T19:06:37.808Z,67.88
2018-12-11T19:09:11.221Z,67.23
2018-12-11T19:11:45.908Z,67.49
2018-12-11T19:14:18.288Z,67.72
2018-12-11T19:16:51.459Z,68.00
2018-12-11T19:19:23.508Z,68.28
2018-12-11T19:21:55.696Z,67.33
2018-12-11T19:27:44.873Z,67.73
2018-12-11T19:30:16.899Z,68.09
2018-12-11T19:32:50.820Z,67.87
2018-12-11T19:35:24.139Z,67.92
2018-12-11T19:37:59.328Z,67.03
2018-12-11T19:40:40.547Z,67.39
2018-12-11T19:43:08.856Z,67.64
2018-12-11T19:45:40.981Z,67.86
2018-12-11T19:48:12.810Z,67.53
2018-12-11T19:50:44.492Z,67.31
2018-12-11T19:53:16.690Z,66.84
2018-12-11T19:55:48.506Z,66.95
2018-12-11T19:58:20.423Z,67.17
2018-12-11T20:00:51.986Z,67.05
2018-12-11T20:03:24.266Z,67.11
2018-12-11T20:05:56.334Z,67.16
2018-12-11T20:08:31.066Z,66.99
2018-12-11T20:11:03.338Z,67.65
2018-12-11T20:13:35.438Z,67.03
2018-12-11T20:16:07.002Z,67.25
2018-12-11T20:18:39.491Z,67.61
2018-12-11T20:21:12.418Z,67.29
2018-12-11T20:23:45.400Z,67.86
2018-12-11T20:26:20.107Z,67.52
2018-12-11T20:28:52.720Z,67.71
2018-12-11T20:31:24.678Z,67.73
2018-12-11T20:33:57.072Z,68.54
2018-12-11T20:36:28.890Z,67.91
2018-12-11T20:39:00.975Z,68.09
2018-12-11T20:41:35.693Z,67.92
2018-12-11T20:44:07.793Z,68.00
2018-12-11T20:46:39.682Z,68.16
2018-12-11T20:49:11.433Z,68.15
2018-12-11T20:51:43.092Z,68.07
2018-12-11T20:54:15.285Z,67.76
2018-12-11T20:56:47.192Z,67.81
2018-12-11T20:59:19.084Z,67.74
2018-12-11T21:01:51.067Z,67.28
2018-12-11T21:04:23.239Z,67.57
2018-12-11T21:06:55.317Z,67.67
2018-12-11T21:09:27.163Z,67.40
2018-12-11T21:12:00.197Z,67.53
2018-12-11T21:14:32.891Z,68.18
2018-12-11T21:17:04.752Z,67.45
2018-12-11T21:19:36.615Z,67.52
2018-12-11T21:22:08.497Z,67.79
2018-12-11T21:24:40.362Z,68.09
2018-12-11T21:27:12.331Z,67.89
2018-12-11T21:29:44.289Z,68.07
2018-12-11T21:32:15.995Z,67.85
2018-12-11T21:34:47.955Z,68.06
2018-12-11T21:37:19.620Z,67.89
2018-12-11T21:39:51.431Z,68.54
2018-12-11T21:42:23.635Z,68.20
2018-12-11T21:44:56.705Z,68.34
2018-12-11T21:47:28.555Z,68.31
2018-12-11T21:50:00.384Z,67.62
2018-12-11T21:52:32.316Z,67.71
2018-12-11T21:55:04.288Z,68.04
2018-12-11T21:57:36.268Z,68.52
2018-12-11T22:00:10.473Z,68.13
2018-12-11T22:02:43.648Z,68.96
2018-12-11T22:05:15.420Z,68.06
2018-12-11T22:07:47.257Z,67.73
2018-12-11T22:10:19.257Z,68.91
2018-12-11T22:12:52.306Z,68.73
2018-12-11T22:15:24.078Z,69.04
2018-12-11T22:17:55.995Z,68.81
2018-12-11T22:20:27.552Z,69.53
2018-12-11T22:22:59.307Z,68.79
2018-12-11T22:25:30.918Z,68.87
2018-12-11T22:28:02.952Z,68.78
2018-12-11T22:30:34.861Z,68.91
2018-12-11T22:33:06.756Z,69.43
2018-12-11T22:35:38.542Z,69.57
2018-12-11T22:38:10.484Z,69.86
2018-12-11T22:40:42.179Z,69.59
2018-12-11T22:43:14.524Z,70.32
2018-12-11T22:45:46.324Z,71.32
2018-12-11T22:48:19.444Z,70.96
2018-12-11T22:50:51.406Z,71.00
2018-12-11T22:53:24.484Z,71.24
2018-12-11T22:55:56.259Z,71.56
2018-12-11T22:58:28.012Z,71.29
2018-12-11T23:00:59.858Z,71.22
2018-12-11T23:03:33.793Z,71.73
2018-12-11T23:06:06.051Z,71.38
2018-12-11T23:08:40.538Z,71.36
2018-12-11T23:11:12.458Z,71.21
2018-12-11T23:13:45.150Z,71.13
2018-12-11T23:16:16.959Z,71.38
2018-12-11T23:18:48.641Z,71.81
2018-12-11T23:21:20.615Z,72.51
2018-12-11T23:23:52.435Z,73.01
2018-12-11T23:26:24.432Z,72.70
2018-12-11T23:28:56.339Z,72.16
2018-12-11T23:31:28.398Z,72.47
2018-12-11T23:34:00.339Z,72.26
2018-12-11T23:36:32.293Z,72.47
2018-12-11T23:39:05.212Z,72.39
2018-12-11T23:41:39.289Z,72.93
2018-12-11T23:44:11.808Z,73.05
2018-12-11T23:46:43.910Z,72.26
2018-12-11T23:49:16.062Z,72.82
2018-12-11T23:51:48.297Z,73.22
2018-12-11T23:54:19.940Z,72.98
2018-12-11T23:56:51.932Z,72.75
2018-12-11T23:59:28.976Z,72.77
